sensor_id;sensor_type;location;lat;lon;timestamp;P1;durP1;ratioP1;P2;durP2;ratioP2
9140;SDS011;46330;50.822;7.126;2022-09-01T00:00:10;5.03;;;3.17;;
9140;SDS011;46330;50.822;7.126;2022-09-01T00:02:40;4.38;;;3.10;;
9140;SDS011;46330;50.822;7.126;2022-09-01T00:05:10;4.53;;;2.83;;
9140;SDS011;46330;50.822;7.126;2022-09-01T00:07:39;3.63;;;2.63;;
9140;SDS011;46330;50.822;7.126;2022-09-01T00:10:08;2.90;;;2.50;;
9140;SDS011;46330;50.822;7.126;2022-09-01T00:12:36;3.38;;;2.80;;
9140;SDS011;46330;50.822;7.126;2022-09-01T00:15:06;4.32;;;2.78;;
9140;SDS011;46330;50.822;7.126;2022-09-01T00:17:36;4.35;;;2.97;;
9140;SDS011;46330;50.822;7.126;2022-09-01T00:20:04;4.15;;;2.83;;
9140;SDS011;46330;50.822;7.126;2022-09-01T00:22:34;5.80;;;3.00;;
9140;SDS011;46330;50.822;7.126;2022-09-01T00:25:04;7.20;;;2.90;;
9140;SDS011;46330;50.822;7.126;2022-09-01T00:27:33;5.85;;;3.03;;
9140;SDS011;46330;50.822;7.126;2022-09-01T00:30:02;6.63;;;3.17;;
9140;SDS011;46330;50.822;7.126;2022-09-01T00:32:31;4.10;;;2.90;;
9140;SDS011;46330;50.822;7.126;2022-09-01T00:34:59;4.18;;;3.45;;
9140;SDS011;46330;50.822;7.126;2022-09-01T00:37:27;5.88;;;3.05;;
9140;SDS011;46330;50.822;7.126;2022-09-01T00:39:55;4.85;;;3.17;;
9140;SDS011;46330;50.822;7.126;2022-09-01T00:42:24;3.55;;;3.22;;
9140;SDS011;46330;50.822;7.126;2022-09-01T00:44:52;5.55;;;3.30;;
9140;SDS011;46330;50.822;7.126;2022-09-01T00:47:20;4.20;;;3.13;;
9140;SDS011;46330;50.822;7.126;2022-09-01T00:49:48;7.55;;;3.60;;
9140;SDS011;46330;50.822;7.126;2022-09-01T00:52:18;5.88;;;3.42;;
9140;SDS011;46330;50.822;7.126;2022-09-01T00:54:49;4.45;;;3.28;;
9140;SDS011;46330;50.822;7.126;2022-09-01T00:57:20;6.63;;;3.50;;
9140;SDS011;46330;50.822;7.126;2022-09-01T00:59:50;5.00;;;3.40;;
9140;SDS011;46330;50.822;7.126;2022-09-01T01:02:23;4.35;;;2.97;;
9140;SDS011;46330;50.822;7.126;2022-09-01T01:04:51;7.32;;;3.42;;
9140;SDS011;46330;50.822;7.126;2022-09-01T01:07:24;3.60;;;2.80;;
9140;SDS011;46330;50.822;7.126;2022-09-01T01:09:54;4.75;;;3.25;;
9140;SDS011;46330;50.822;7.126;2022-09-01T01:12:23;3.80;;;3.20;;
9140;SDS011;46330;50.822;7.126;2022-09-01T01:14:54;4.43;;;2.92;;
9140;SDS011;46330;50.822;7.126;2022-09-01T01:17:22;4.00;;;3.05;;
9140;SDS011;46330;50.822;7.126;2022-09-01T01:19:50;5.85;;;3.00;;
9140;SDS011;46330;50.822;7.126;2022-09-01T01:22:40;5.00;;;2.97;;
9140;SDS011;46330;50.822;7.126;2022-09-01T01:25:37;4.32;;;2.83;;
9140;SDS011;46330;50.822;7.126;2022-09-01T01:28:12;3.75;;;2.83;;
9140;SDS011;46330;50.822;7.126;2022-09-01T01:30:48;4.03;;;2.88;;
9140;SDS011;46330;50.822;7.126;2022-09-01T01:33:18;4.60;;;3.20;;
9140;SDS011;46330;50.822;7.126;2022-09-01T01:35:49;4.88;;;3.17;;
9140;SDS011;46330;50.822;7.126;2022-09-01T01:38:18;4.45;;;3.33;;
9140;SDS011;46330;50.822;7.126;2022-09-01T01:40:50;5.38;;;3.33;;
9140;SDS011;46330;50.822;7.126;2022-09-01T01:43:23;9.10;;;3.60;;
9140;SDS011;46330;50.822;7.126;2022-09-01T01:45:53;4.55;;;2.95;;
9140;SDS011;46330;50.822;7.126;2022-09-01T01:48:28;5.72;;;3.50;;
9140;SDS011;46330;50.822;7.126;2022-09-01T01:51:00;4.68;;;2.80;;
9140;SDS011;46330;50.822;7.126;2022-09-01T01:53:29;4.50;;;3.08;;
9140;SDS011;46330;50.822;7.126;2022-09-01T01:55:59;3.38;;;2.70;;
9140;SDS011;46330;50.822;7.126;2022-09-01T01:58:31;6.85;;;3.65;;
9140;SDS011;46330;50.822;7.126;2022-09-01T02:01:06;6.77;;;3.27;;
9140;SDS011;46330;50.822;7.126;2022-09-01T02:03:37;6.10;;;3.25;;
9140;SDS011;46330;50.822;7.126;2022-09-01T02:06:07;4.80;;;3.20;;
9140;SDS011;46330;50.822;7.126;2022-09-01T02:08:38;3.58;;;3.28;;
9140;SDS011;46330;50.822;7.126;2022-09-01T02:11:08;4.28;;;3.33;;
9140;SDS011;46330;50.822;7.126;2022-09-01T02:13:36;5.18;;;3.33;;
9140;SDS011;46330;50.822;7.126;2022-09-01T02:16:04;5.35;;;3.28;;
9140;SDS011;46330;50.822;7.126;2022-09-01T02:18:39;12.80;;;3.60;;
9140;SDS011;46330;50.822;7.126;2022-09-01T02:21:10;6.35;;;3.55;;
9140;SDS011;46330;50.822;7.126;2022-09-01T02:23:44;6.32;;;3.30;;
9140;SDS011;46330;50.822;7.126;2022-09-01T02:26:16;10.25;;;3.70;;
9140;SDS011;46330;50.822;7.126;2022-09-01T02:28:47;5.45;;;3.33;;
9140;SDS011;46330;50.822;7.126;2022-09-01T02:31:24;4.30;;;3.25;;
9140;SDS011;46330;50.822;7.126;2022-09-01T02:33:55;5.00;;;3.30;;
9140;SDS011;46330;50.822;7.126;2022-09-01T02:36:24;3.70;;;3.15;;
9140;SDS011;46330;50.822;7.126;2022-09-01T02:38:52;4.25;;;3.33;;
9140;SDS011;46330;50.822;7.126;2022-09-01T02:41:23;5.28;;;3.45;;
9140;SDS011;46330;50.822;7.126;2022-09-01T02:43:56;9.52;;;4.22;;
9140;SDS011;46330;50.822;7.126;2022-09-01T02:46:28;11.98;;;5.10;;
9140;SDS011;46330;50.822;7.126;2022-09-01T02:48:57;10.38;;;5.18;;
9140;SDS011;46330;50.822;7.126;2022-09-01T02:51:26;10.35;;;5.20;;
9140;SDS011;46330;50.822;7.126;2022-09-01T02:53:54;13.88;;;5.50;;
9140;SDS011;46330;50.822;7.126;2022-09-01T02:56:23;8.35;;;4.53;;
9140;SDS011;46330;50.822;7.126;2022-09-01T02:58:53;10.88;;;4.78;;
9140;SDS011;46330;50.822;7.126;2022-09-01T03:01:23;7.72;;;4.80;;
9140;SDS011;46330;50.822;7.126;2022-09-01T03:03:56;8.95;;;5.15;;
9140;SDS011;46330;50.822;7.126;2022-09-01T03:06:26;10.73;;;6.40;;
9140;SDS011;46330;50.822;7.126;2022-09-01T03:08:57;9.00;;;5.45;;
9140;SDS011;46330;50.822;7.126;2022-09-01T03:11:27;9.95;;;4.93;;
9140;SDS011;46330;50.822;7.126;2022-09-01T03:13:57;8.73;;;4.80;;
9140;SDS011;46330;50.822;7.126;2022-09-01T03:16:27;5.60;;;4.57;;
9140;SDS011;46330;50.822;7.126;2022-09-01T03:18:57;4.57;;;3.30;;
9140;SDS011;46330;50.822;7.126;2022-09-01T03:21:25;4.90;;;3.28;;
9140;SDS011;46330;50.822;7.126;2022-09-01T03:23:54;4.43;;;3.03;;
9140;SDS011;46330;50.822;7.126;2022-09-01T03:26:23;4.05;;;2.95;;
9140;SDS011;46330;50.822;7.126;2022-09-01T03:28:54;5.38;;;3.50;;
9140;SDS011;46330;50.822;7.126;2022-09-01T03:31:23;5.43;;;3.80;;
9140;SDS011;46330;50.822;7.126;2022-09-01T03:33:59;4.93;;;3.17;;
9140;SDS011;46330;50.822;7.126;2022-09-01T03:36:32;7.80;;;3.75;;
9140;SDS011;46330;50.822;7.126;2022-09-01T03:39:00;4.40;;;3.53;;
9140;SDS011;46330;50.822;7.126;2022-09-01T03:41:30;5.43;;;3.60;;
9140;SDS011;46330;50.822;7.126;2022-09-01T03:43:59;10.25;;;3.70;;
9140;SDS011;46330;50.822;7.126;2022-09-01T03:46:30;12.25;;;3.90;;
9140;SDS011;46330;50.822;7.126;2022-09-01T03:49:03;5.68;;;3.53;;
9140;SDS011;46330;50.822;7.126;2022-09-01T03:51:35;6.63;;;3.70;;
9140;SDS011;46330;50.822;7.126;2022-09-01T03:54:04;8.40;;;5.97;;
9140;SDS011;46330;50.822;7.126;2022-09-01T03:56:33;13.00;;;8.60;;
9140;SDS011;46330;50.822;7.126;2022-09-01T03:59:02;7.28;;;4.43;;
9140;SDS011;46330;50.822;7.126;2022-09-01T04:01:33;9.07;;;5.07;;
9140;SDS011;46330;50.822;7.126;2022-09-01T04:04:09;7.88;;;4.55;;
9140;SDS011;46330;50.822;7.126;2022-09-01T04:06:39;6.70;;;4.57;;
9140;SDS011;46330;50.822;7.126;2022-09-01T04:09:08;7.13;;;3.58;;
9140;SDS011;46330;50.822;7.126;2022-09-01T04:11:38;5.10;;;3.58;;
9140;SDS011;46330;50.822;7.126;2022-09-01T04:14:14;5.13;;;3.78;;
9140;SDS011;46330;50.822;7.126;2022-09-01T04:16:44;5.00;;;3.65;;
9140;SDS011;46330;50.822;7.126;2022-09-01T04:19:33;8.75;;;3.78;;
9140;SDS011;46330;50.822;7.126;2022-09-01T04:22:04;6.28;;;3.65;;
9140;SDS011;46330;50.822;7.126;2022-09-01T04:24:40;6.55;;;3.90;;
9140;SDS011;46330;50.822;7.126;2022-09-01T04:27:10;6.47;;;4.50;;
9140;SDS011;46330;50.822;7.126;2022-09-01T04:29:41;9.02;;;4.70;;
9140;SDS011;46330;50.822;7.126;2022-09-01T04:32:11;7.22;;;4.40;;
9140;SDS011;46330;50.822;7.126;2022-09-01T04:34:44;8.05;;;4.60;;
9140;SDS011;46330;50.822;7.126;2022-09-01T04:37:15;9.57;;;6.95;;
9140;SDS011;46330;50.822;7.126;2022-09-01T04:39:51;7.93;;;5.10;;
9140;SDS011;46330;50.822;7.126;2022-09-01T04:42:23;10.55;;;5.30;;
9140;SDS011;46330;50.822;7.126;2022-09-01T04:44:56;8.60;;;4.68;;
9140;SDS011;46330;50.822;7.126;2022-09-01T04:47:28;7.10;;;4.72;;
9140;SDS011;46330;50.822;7.126;2022-09-01T04:50:04;8.57;;;4.72;;
9140;SDS011;46330;50.822;7.126;2022-09-01T04:52:42;7.38;;;5.03;;
9140;SDS011;46330;50.822;7.126;2022-09-01T04:55:20;8.82;;;5.22;;
9140;SDS011;46330;50.822;7.126;2022-09-01T04:57:50;8.32;;;5.07;;
9140;SDS011;46330;50.822;7.126;2022-09-01T05:00:20;10.48;;;4.72;;
9140;SDS011;46330;50.822;7.126;2022-09-01T05:02:49;8.82;;;5.40;;
9140;SDS011;46330;50.822;7.126;2022-09-01T05:05:19;6.65;;;4.85;;
9140;SDS011;46330;50.822;7.126;2022-09-01T05:07:49;7.60;;;4.72;;
9140;SDS011;46330;50.822;7.126;2022-09-01T05:10:22;9.65;;;5.20;;
9140;SDS011;46330;50.822;7.126;2022-09-01T05:13:14;6.82;;;4.93;;
9140;SDS011;46330;50.822;7.126;2022-09-01T05:15:45;8.45;;;5.18;;
9140;SDS011;46330;50.822;7.126;2022-09-01T05:18:14;9.98;;;5.38;;
9140;SDS011;46330;50.822;7.126;2022-09-01T05:20:49;6.25;;;4.78;;
9140;SDS011;46330;50.822;7.126;2022-09-01T05:23:18;8.18;;;4.97;;
9140;SDS011;46330;50.822;7.126;2022-09-01T05:25:49;7.38;;;4.47;;
9140;SDS011;46330;50.822;7.126;2022-09-01T05:28:20;6.07;;;4.45;;
9140;SDS011;46330;50.822;7.126;2022-09-01T05:30:52;7.53;;;4.10;;
9140;SDS011;46330;50.822;7.126;2022-09-01T05:33:21;8.75;;;4.90;;
9140;SDS011;46330;50.822;7.126;2022-09-01T05:35:54;15.75;;;9.95;;
9140;SDS011;46330;50.822;7.126;2022-09-01T05:38:26;10.00;;;6.22;;
9140;SDS011;46330;50.822;7.126;2022-09-01T05:40:58;4.93;;;3.15;;
9140;SDS011;46330;50.822;7.126;2022-09-01T05:43:28;5.80;;;3.67;;
9140;SDS011;46330;50.822;7.126;2022-09-01T05:45:58;4.90;;;3.00;;
9140;SDS011;46330;50.822;7.126;2022-09-01T05:48:33;5.10;;;3.15;;
9140;SDS011;46330;50.822;7.126;2022-09-01T05:51:07;4.28;;;2.97;;
9140;SDS011;46330;50.822;7.126;2022-09-01T05:53:56;4.75;;;3.42;;
9140;SDS011;46330;50.822;7.126;2022-09-01T05:56:27;5.38;;;3.35;;
9140;SDS011;46330;50.822;7.126;2022-09-01T05:58:59;6.68;;;3.53;;
9140;SDS011;46330;50.822;7.126;2022-09-01T06:01:49;5.13;;;3.65;;
9140;SDS011;46330;50.822;7.126;2022-09-01T06:04:19;6.97;;;3.58;;
9140;SDS011;46330;50.822;7.126;2022-09-01T06:06:51;5.63;;;3.25;;
9140;SDS011;46330;50.822;7.126;2022-09-01T06:09:36;4.65;;;3.38;;
9140;SDS011;46330;50.822;7.126;2022-09-01T06:12:05;5.57;;;3.65;;
9140;SDS011;46330;50.822;7.126;2022-09-01T06:14:34;5.60;;;2.90;;
9140;SDS011;46330;50.822;7.126;2022-09-01T06:17:03;4.00;;;2.70;;
9140;SDS011;46330;50.822;7.126;2022-09-01T06:19:32;5.13;;;2.70;;
9140;SDS011;46330;50.822;7.126;2022-09-01T06:22:03;5.68;;;2.60;;
9140;SDS011;46330;50.822;7.126;2022-09-01T06:24:32;4.78;;;2.75;;
9140;SDS011;46330;50.822;7.126;2022-09-01T06:27:00;5.50;;;2.80;;
9140;SDS011;46330;50.822;7.126;2022-09-01T06:29:28;5.38;;;2.90;;
9140;SDS011;46330;50.822;7.126;2022-09-01T06:31:57;5.95;;;3.50;;
9140;SDS011;46330;50.822;7.126;2022-09-01T06:34:29;4.47;;;3.10;;
9140;SDS011;46330;50.822;7.126;2022-09-01T06:36:59;5.88;;;3.25;;
9140;SDS011;46330;50.822;7.126;2022-09-01T06:39:27;5.07;;;2.70;;
9140;SDS011;46330;50.822;7.126;2022-09-01T06:41:57;6.60;;;2.70;;
9140;SDS011;46330;50.822;7.126;2022-09-01T06:44:31;6.85;;;2.92;;
9140;SDS011;46330;50.822;7.126;2022-09-01T06:47:07;4.20;;;2.47;;
9140;SDS011;46330;50.822;7.126;2022-09-01T06:49:37;4.25;;;2.40;;
9140;SDS011;46330;50.822;7.126;2022-09-01T06:52:15;3.75;;;2.35;;
9140;SDS011;46330;50.822;7.126;2022-09-01T06:54:43;6.30;;;2.25;;
9140;SDS011;46330;50.822;7.126;2022-09-01T06:57:11;3.15;;;2.15;;
9140;SDS011;46330;50.822;7.126;2022-09-01T06:59:59;5.47;;;2.45;;
9140;SDS011;46330;50.822;7.126;2022-09-01T07:02:32;4.40;;;2.25;;
9140;SDS011;46330;50.822;7.126;2022-09-01T07:05:26;3.15;;;2.03;;
9140;SDS011;46330;50.822;7.126;2022-09-01T07:08:15;4.80;;;2.25;;
9140;SDS011;46330;50.822;7.126;2022-09-01T07:11:07;4.43;;;2.40;;
9140;SDS011;46330;50.822;7.126;2022-09-01T07:14:03;5.95;;;1.80;;
9140;SDS011;46330;50.822;7.126;2022-09-01T07:16:48;2.83;;;1.90;;
9140;SDS011;46330;50.822;7.126;2022-09-01T07:19:36;3.83;;;2.00;;
9140;SDS011;46330;50.822;7.126;2022-09-01T07:22:22;7.30;;;4.38;;
9140;SDS011;46330;50.822;7.126;2022-09-01T07:25:10;8.63;;;2.25;;
9140;SDS011;46330;50.822;7.126;2022-09-01T07:27:49;4.50;;;1.80;;
9140;SDS011;46330;50.822;7.126;2022-09-01T07:30:21;5.93;;;1.83;;
9140;SDS011;46330;50.822;7.126;2022-09-01T07:32:50;4.80;;;1.73;;
9140;SDS011;46330;50.822;7.126;2022-09-01T07:35:20;6.63;;;1.95;;
9140;SDS011;46330;50.822;7.126;2022-09-01T07:37:52;5.03;;;1.70;;
9140;SDS011;46330;50.822;7.126;2022-09-01T07:40:41;3.78;;;1.50;;
9140;SDS011;46330;50.822;7.126;2022-09-01T07:43:48;3.05;;;1.40;;
9140;SDS011;46330;50.822;7.126;2022-09-01T07:46:37;5.20;;;1.67;;
9140;SDS011;46330;50.822;7.126;2022-09-01T07:49:10;2.60;;;1.45;;
9140;SDS011;46330;50.822;7.126;2022-09-01T07:51:58;3.22;;;1.60;;
9140;SDS011;46330;50.822;7.126;2022-09-01T07:54:31;3.00;;;1.67;;
9140;SDS011;46330;50.822;7.126;2022-09-01T07:57:01;4.32;;;1.67;;
9140;SDS011;46330;50.822;7.126;2022-09-01T07:59:31;3.45;;;1.50;;
9140;SDS011;46330;50.822;7.126;2022-09-01T08:02:07;7.03;;;1.60;;
9140;SDS011;46330;50.822;7.126;2022-09-01T08:04:36;4.38;;;1.55;;
9140;SDS011;46330;50.822;7.126;2022-09-01T08:07:06;2.45;;;1.20;;
9140;SDS011;46330;50.822;7.126;2022-09-01T08:09:43;1.35;;;1.10;;
9140;SDS011;46330;50.822;7.126;2022-09-01T08:12:13;3.25;;;1.42;;
9140;SDS011;46330;50.822;7.126;2022-09-01T08:14:48;2.65;;;1.60;;
9140;SDS011;46330;50.822;7.126;2022-09-01T08:17:39;2.33;;;1.30;;
9140;SDS011;46330;50.822;7.126;2022-09-01T08:20:26;2.78;;;1.42;;
9140;SDS011;46330;50.822;7.126;2022-09-01T08:22:58;2.08;;;1.45;;
9140;SDS011;46330;50.822;7.126;2022-09-01T08:25:33;4.20;;;1.20;;
9140;SDS011;46330;50.822;7.126;2022-09-01T08:28:04;2.42;;;1.48;;
9140;SDS011;46330;50.822;7.126;2022-09-01T08:30:33;3.45;;;1.30;;
9140;SDS011;46330;50.822;7.126;2022-09-01T08:33:02;1.75;;;1.30;;
9140;SDS011;46330;50.822;7.126;2022-09-01T08:35:44;3.40;;;1.20;;
9140;SDS011;46330;50.822;7.126;2022-09-01T08:38:14;2.50;;;1.20;;
9140;SDS011;46330;50.822;7.126;2022-09-01T08:40:48;2.47;;;1.30;;
9140;SDS011;46330;50.822;7.126;2022-09-01T08:43:24;1.88;;;1.23;;
9140;SDS011;46330;50.822;7.126;2022-09-01T08:46:10;2.55;;;1.20;;
9140;SDS011;46330;50.822;7.126;2022-09-01T08:48:41;2.35;;;1.20;;
9140;SDS011;46330;50.822;7.126;2022-09-01T08:51:45;4.00;;;1.42;;
9140;SDS011;46330;50.822;7.126;2022-09-01T08:54:20;3.00;;;1.40;;
9140;SDS011;46330;50.822;7.126;2022-09-01T08:57:00;3.50;;;1.20;;
9140;SDS011;46330;50.822;7.126;2022-09-01T08:59:51;2.47;;;1.43;;
9140;SDS011;46330;50.822;7.126;2022-09-01T09:02:44;2.78;;;1.13;;
9140;SDS011;46330;50.822;7.126;2022-09-01T09:05:25;2.60;;;1.30;;
9140;SDS011;46330;50.822;7.126;2022-09-01T09:08:05;2.17;;;1.33;;
9140;SDS011;46330;50.822;7.126;2022-09-01T09:10:45;2.22;;;1.40;;
9140;SDS011;46330;50.822;7.126;2022-09-01T09:13:23;3.33;;;1.55;;
9140;SDS011;46330;50.822;7.126;2022-09-01T09:16:02;3.38;;;1.40;;
9140;SDS011;46330;50.822;7.126;2022-09-01T09:18:37;2.33;;;1.30;;
9140;SDS011;46330;50.822;7.126;2022-09-01T09:21:26;2.17;;;1.13;;
9140;SDS011;46330;50.822;7.126;2022-09-01T09:23:59;2.00;;;1.03;;
9140;SDS011;46330;50.822;7.126;2022-09-01T09:26:35;2.97;;;1.30;;
9140;SDS011;46330;50.822;7.126;2022-09-01T09:29:12;3.85;;;1.75;;
9140;SDS011;46330;50.822;7.126;2022-09-01T09:31:40;1.60;;;1.13;;
9140;SDS011;46330;50.822;7.126;2022-09-01T09:34:15;2.03;;;1.30;;
9140;SDS011;46330;50.822;7.126;2022-09-01T09:37:00;2.70;;;1.23;;
9140;SDS011;46330;50.822;7.126;2022-09-01T09:39:42;5.75;;;1.40;;
9140;SDS011;46330;50.822;7.126;2022-09-01T09:42:12;1.30;;;1.15;;
9140;SDS011;46330;50.822;7.126;2022-09-01T09:44:43;2.10;;;1.17;;
9140;SDS011;46330;50.822;7.126;2022-09-01T09:50:14;3.47;;;1.20;;
9140;SDS011;46330;50.822;7.126;2022-09-01T09:52:46;1.33;;;1.10;;
9140;SDS011;46330;50.822;7.126;2022-09-01T09:55:19;2.28;;;1.30;;
9140;SDS011;46330;50.822;7.126;2022-09-01T09:57:50;2.67;;;1.23;;
9140;SDS011;46330;50.822;7.126;2022-09-01T10:00:23;2.40;;;1.20;;
9140;SDS011;46330;50.822;7.126;2022-09-01T10:02:54;1.55;;;0.98;;
9140;SDS011;46330;50.822;7.126;2022-09-01T10:05:36;1.55;;;1.20;;
9140;SDS011;46330;50.822;7.126;2022-09-01T10:08:07;1.75;;;1.27;;
9140;SDS011;46330;50.822;7.126;2022-09-01T10:10:38;1.90;;;1.10;;
9140;SDS011;46330;50.822;7.126;2022-09-01T10:13:10;4.43;;;1.40;;
9140;SDS011;46330;50.822;7.126;2022-09-01T10:15:42;3.42;;;1.30;;
9140;SDS011;46330;50.822;7.126;2022-09-01T10:18:17;4.00;;;1.40;;
9140;SDS011;46330;50.822;7.126;2022-09-01T10:20:55;3.83;;;1.25;;
9140;SDS011;46330;50.822;7.126;2022-09-01T10:23:27;3.15;;;1.38;;
9140;SDS011;46330;50.822;7.126;2022-09-01T10:25:58;4.68;;;1.40;;
9140;SDS011;46330;50.822;7.126;2022-09-01T10:28:31;1.00;;;1.00;;
9140;SDS011;46330;50.822;7.126;2022-09-01T10:31:04;1.35;;;1.15;;
9140;SDS011;46330;50.822;7.126;2022-09-01T10:33:34;2.55;;;1.30;;
9140;SDS011;46330;50.822;7.126;2022-09-01T10:36:02;3.13;;;1.70;;
9140;SDS011;46330;50.822;7.126;2022-09-01T10:38:33;2.38;;;1.50;;
9140;SDS011;46330;50.822;7.126;2022-09-01T10:41:01;1.85;;;1.10;;
9140;SDS011;46330;50.822;7.126;2022-09-01T10:43:41;2.28;;;1.13;;
9140;SDS011;46330;50.822;7.126;2022-09-01T10:55:37;2.30;;;1.33;;
9140;SDS011;46330;50.822;7.126;2022-09-01T10:58:19;4.90;;;1.48;;
9140;SDS011;46330;50.822;7.126;2022-09-01T11:01:22;2.42;;;1.23;;
9140;SDS011;46330;50.822;7.126;2022-09-01T11:05:14;1.70;;;1.40;;
9140;SDS011;46330;50.822;7.126;2022-09-01T11:07:44;3.25;;;1.40;;
9140;SDS011;46330;50.822;7.126;2022-09-01T11:10:35;3.08;;;1.30;;
9140;SDS011;46330;50.822;7.126;2022-09-01T11:13:20;4.40;;;1.40;;
9140;SDS011;46330;50.822;7.126;2022-09-01T11:22:13;2.70;;;1.50;;
9140;SDS011;46330;50.822;7.126;2022-09-01T11:25:04;2.80;;;1.40;;
9140;SDS011;46330;50.822;7.126;2022-09-01T11:27:54;1.67;;;1.50;;
9140;SDS011;46330;50.822;7.126;2022-09-01T11:30:31;1.75;;;1.40;;
9140;SDS011;46330;50.822;7.126;2022-09-01T11:33:07;5.22;;;1.60;;
9140;SDS011;46330;50.822;7.126;2022-09-01T11:35:45;2.67;;;1.40;;
9140;SDS011;46330;50.822;7.126;2022-09-01T11:38:15;3.70;;;1.60;;
9140;SDS011;46330;50.822;7.126;2022-09-01T11:40:52;2.22;;;1.30;;
9140;SDS011;46330;50.822;7.126;2022-09-01T11:43:22;1.85;;;1.42;;
9140;SDS011;46330;50.822;7.126;2022-09-01T11:45:55;2.42;;;1.45;;
9140;SDS011;46330;50.822;7.126;2022-09-01T11:48:33;2.28;;;1.50;;
9140;SDS011;46330;50.822;7.126;2022-09-01T11:51:02;2.47;;;1.40;;
9140;SDS011;46330;50.822;7.126;2022-09-01T11:53:31;2.00;;;1.50;;
9140;SDS011;46330;50.822;7.126;2022-09-01T11:56:11;2.80;;;1.60;;
9140;SDS011;46330;50.822;7.126;2022-09-01T11:58:40;3.78;;;1.60;;
9140;SDS011;46330;50.822;7.126;2022-09-01T12:01:13;2.63;;;1.48;;
9140;SDS011;46330;50.822;7.126;2022-09-01T12:03:43;3.20;;;1.50;;
9140;SDS011;46330;50.822;7.126;2022-09-01T12:06:18;2.45;;;1.67;;
9140;SDS011;46330;50.822;7.126;2022-09-01T12:08:56;4.32;;;1.60;;
9140;SDS011;46330;50.822;7.126;2022-09-01T12:11:26;4.25;;;1.60;;
9140;SDS011;46330;50.822;7.126;2022-09-01T12:13:57;3.83;;;1.70;;
9140;SDS011;46330;50.822;7.126;2022-09-01T12:16:30;4.00;;;1.60;;
9140;SDS011;46330;50.822;7.126;2022-09-01T12:19:02;2.72;;;1.58;;
9140;SDS011;46330;50.822;7.126;2022-09-01T12:21:34;5.55;;;1.88;;
9140;SDS011;46330;50.822;7.126;2022-09-01T12:24:10;3.10;;;1.48;;
9140;SDS011;46330;50.822;7.126;2022-09-01T12:26:41;5.40;;;1.98;;
9140;SDS011;46330;50.822;7.126;2022-09-01T12:29:10;2.63;;;1.90;;
9140;SDS011;46330;50.822;7.126;2022-09-01T12:31:40;2.67;;;1.75;;
9140;SDS011;46330;50.822;7.126;2022-09-01T12:34:22;2.58;;;1.90;;
9140;SDS011;46330;50.822;7.126;2022-09-01T12:37:03;2.13;;;1.90;;
9140;SDS011;46330;50.822;7.126;2022-09-01T12:39:34;3.15;;;1.80;;
9140;SDS011;46330;50.822;7.126;2022-09-01T12:42:07;5.05;;;1.80;;
9140;SDS011;46330;50.822;7.126;2022-09-01T12:44:45;3.47;;;1.92;;
9140;SDS011;46330;50.822;7.126;2022-09-01T12:50:35;4.78;;;1.95;;
9140;SDS011;46330;50.822;7.126;2022-09-01T12:53:16;2.72;;;1.80;;
9140;SDS011;46330;50.822;7.126;2022-09-01T12:56:01;2.97;;;2.00;;
9140;SDS011;46330;50.822;7.126;2022-09-01T12:58:46;2.15;;;1.95;;
9140;SDS011;46330;50.822;7.126;2022-09-01T13:01:25;2.50;;;1.80;;
9140;SDS011;46330;50.822;7.126;2022-09-01T13:04:11;4.25;;;1.98;;
9140;SDS011;46330;50.822;7.126;2022-09-01T13:06:42;2.40;;;1.90;;
9140;SDS011;46330;50.822;7.126;2022-09-01T13:09:12;3.00;;;2.00;;
9140;SDS011;46330;50.822;7.126;2022-09-01T13:11:40;2.45;;;1.80;;
9140;SDS011;46330;50.822;7.126;2022-09-01T13:14:28;4.00;;;2.10;;
9140;SDS011;46330;50.822;7.126;2022-09-01T13:16:56;2.88;;;2.00;;
9140;SDS011;46330;50.822;7.126;2022-09-01T13:19:24;4.40;;;2.03;;
9140;SDS011;46330;50.822;7.126;2022-09-01T13:21:56;2.88;;;1.88;;
9140;SDS011;46330;50.822;7.126;2022-09-01T13:24:25;2.33;;;1.88;;
9140;SDS011;46330;50.822;7.126;2022-09-01T13:26:56;3.58;;;2.15;;
9140;SDS011;46330;50.822;7.126;2022-09-01T13:29:44;2.55;;;1.92;;
9140;SDS011;46330;50.822;7.126;2022-09-01T13:32:12;4.60;;;2.05;;
9140;SDS011;46330;50.822;7.126;2022-09-01T13:34:45;5.78;;;1.80;;
9140;SDS011;46330;50.822;7.126;2022-09-01T13:37:15;2.88;;;1.90;;
9140;SDS011;46330;50.822;7.126;2022-09-01T13:39:44;4.20;;;1.90;;
9140;SDS011;46330;50.822;7.126;2022-09-01T13:42:14;7.93;;;1.80;;
9140;SDS011;46330;50.822;7.126;2022-09-01T13:44:42;5.80;;;2.00;;
9140;SDS011;46330;50.822;7.126;2022-09-01T13:47:15;3.58;;;1.77;;
9140;SDS011;46330;50.822;7.126;2022-09-01T13:49:59;2.25;;;1.85;;
9140;SDS011;46330;50.822;7.126;2022-09-01T13:52:34;3.42;;;1.70;;
9140;SDS011;46330;50.822;7.126;2022-09-01T13:55:04;5.00;;;1.88;;
9140;SDS011;46330;50.822;7.126;2022-09-01T13:57:33;5.38;;;1.90;;
9140;SDS011;46330;50.822;7.126;2022-09-01T14:00:03;3.08;;;1.83;;
9140;SDS011;46330;50.822;7.126;2022-09-01T14:02:35;2.80;;;1.75;;
9140;SDS011;46330;50.822;7.126;2022-09-01T14:05:03;3.70;;;2.08;;
9140;SDS011;46330;50.822;7.126;2022-09-01T14:07:32;2.25;;;1.80;;
9140;SDS011;46330;50.822;7.126;2022-09-01T14:10:00;4.40;;;2.00;;
9140;SDS011;46330;50.822;7.126;2022-09-01T14:12:29;5.78;;;2.00;;
9140;SDS011;46330;50.822;7.126;2022-09-01T14:14:57;3.25;;;1.80;;
9140;SDS011;46330;50.822;7.126;2022-09-01T14:17:45;1.80;;;1.70;;
9140;SDS011;46330;50.822;7.126;2022-09-01T14:20:15;1.88;;;1.70;;
9140;SDS011;46330;50.822;7.126;2022-09-01T14:22:46;2.75;;;1.80;;
9140;SDS011;46330;50.822;7.126;2022-09-01T14:25:14;2.55;;;1.73;;
9140;SDS011;46330;50.822;7.126;2022-09-01T14:27:45;3.10;;;1.80;;
9140;SDS011;46330;50.822;7.126;2022-09-01T14:30:15;4.38;;;1.80;;
9140;SDS011;46330;50.822;7.126;2022-09-01T14:32:45;2.55;;;1.90;;
9140;SDS011;46330;50.822;7.126;2022-09-01T14:35:14;3.65;;;1.80;;
9140;SDS011;46330;50.822;7.126;2022-09-01T14:37:44;3.47;;;1.92;;
9140;SDS011;46330;50.822;7.126;2022-09-01T14:40:12;2.65;;;2.00;;
9140;SDS011;46330;50.822;7.126;2022-09-01T14:42:43;3.67;;;1.95;;
9140;SDS011;46330;50.822;7.126;2022-09-01T14:45:15;2.33;;;1.95;;
9140;SDS011;46330;50.822;7.126;2022-09-01T14:47:44;3.72;;;2.00;;
9140;SDS011;46330;50.822;7.126;2022-09-01T14:50:14;3.67;;;2.20;;
9140;SDS011;46330;50.822;7.126;2022-09-01T14:52:49;4.63;;;1.77;;
9140;SDS011;46330;50.822;7.126;2022-09-01T14:55:19;2.85;;;1.90;;
9140;SDS011;46330;50.822;7.126;2022-09-01T14:57:49;2.22;;;1.85;;
9140;SDS011;46330;50.822;7.126;2022-09-01T15:00:18;2.95;;;2.00;;
9140;SDS011;46330;50.822;7.126;2022-09-01T15:02:46;2.25;;;1.63;;
9140;SDS011;46330;50.822;7.126;2022-09-01T15:05:14;2.17;;;1.80;;
9140;SDS011;46330;50.822;7.126;2022-09-01T15:07:42;2.42;;;1.80;;
9140;SDS011;46330;50.822;7.126;2022-09-01T15:10:11;2.60;;;1.90;;
9140;SDS011;46330;50.822;7.126;2022-09-01T15:12:43;2.03;;;1.80;;
9140;SDS011;46330;50.822;7.126;2022-09-01T15:15:12;3.45;;;1.80;;
9140;SDS011;46330;50.822;7.126;2022-09-01T15:17:41;2.10;;;1.90;;
9140;SDS011;46330;50.822;7.126;2022-09-01T15:20:12;3.38;;;1.83;;
9140;SDS011;46330;50.822;7.126;2022-09-01T15:22:57;4.28;;;1.70;;
9140;SDS011;46330;50.822;7.126;2022-09-01T15:25:25;2.35;;;1.70;;
9140;SDS011;46330;50.822;7.126;2022-09-01T15:27:53;2.80;;;1.80;;
9140;SDS011;46330;50.822;7.126;2022-09-01T15:30:22;2.05;;;1.85;;
9140;SDS011;46330;50.822;7.126;2022-09-01T15:32:51;2.70;;;1.80;;
9140;SDS011;46330;50.822;7.126;2022-09-01T15:35:20;2.20;;;1.80;;
9140;SDS011;46330;50.822;7.126;2022-09-01T15:37:49;4.50;;;2.00;;
9140;SDS011;46330;50.822;7.126;2022-09-01T15:40:18;3.13;;;1.90;;
9140;SDS011;46330;50.822;7.126;2022-09-01T15:42:46;4.15;;;1.90;;
9140;SDS011;46330;50.822;7.126;2022-09-01T15:45:15;2.08;;;1.88;;
9140;SDS011;46330;50.822;7.126;2022-09-01T15:47:46;1.95;;;1.70;;
9140;SDS011;46330;50.822;7.126;2022-09-01T15:50:15;5.32;;;2.00;;
9140;SDS011;46330;50.822;7.126;2022-09-01T15:52:49;2.47;;;1.95;;
9140;SDS011;46330;50.822;7.126;2022-09-01T15:55:19;2.03;;;1.63;;
9140;SDS011;46330;50.822;7.126;2022-09-01T15:57:49;2.92;;;1.95;;
9140;SDS011;46330;50.822;7.126;2022-09-01T16:00:19;3.42;;;1.80;;